createdAt,value
2023-02-07T00:01:31.169Z,15.74
2023-02-07T00:06:34.333Z,15.93
2023-02-07T00:11:36.179Z,16.20
2023-02-07T00:16:37.882Z,16.11
2023-02-07T00:21:39.354Z,15.78
2023-02-07T00:26:41.020Z,15.93
2023-02-07T00:31:42.470Z,15.76
2023-02-07T00:36:43.938Z,15.82
2023-02-07T00:41:45.410Z,15.75
2023-02-07T00:46:46.844Z,15.64
2023-02-07T00:51:48.236Z,15.63
2023-02-07T00:56:49.611Z,15.90
2023-02-07T01:01:51.015Z,16.04
2023-02-07T01:06:52.403Z,15.41
2023-02-07T01:11:53.797Z,15.86
2023-02-07T01:16:55.199Z,15.96
2023-02-07T01:21:58.699Z,15.77
2023-02-07T01:27:00.090Z,15.53
2023-02-07T01:32:01.504Z,15.67
2023-02-07T01:37:02.876Z,15.60
2023-02-07T01:42:04.416Z,15.44
2023-02-07T01:47:05.791Z,15.69
2023-02-07T01:52:10.921Z,15.53
2023-02-07T01:57:13.593Z,15.82
2023-02-07T02:02:15.896Z,15.33
2023-02-07T02:07:17.323Z,15.29
2023-02-07T02:12:49.502Z,15.40
2023-02-07T02:18:20.004Z,15.43
2023-02-07T02:23:40.098Z,15.30
2023-02-07T02:29:04.029Z,15.13
2023-02-07T02:34:27.809Z,15.48
2023-02-07T02:39:32.949Z,15.42
2023-02-07T02:44:47.327Z,15.21
2023-02-07T02:49:48.708Z,15.32
2023-02-07T02:54:50.114Z,15.15
2023-02-07T03:00:12.166Z,15.37
2023-02-07T03:05:32.626Z,15.18
2023-02-07T03:10:51.202Z,14.94
2023-02-07T03:16:21.525Z,15.18
2023-02-07T03:21:26.934Z,15.34
2023-02-07T03:26:29.196Z,15.13
2023-02-07T03:31:30.658Z,14.99
2023-02-07T03:36:45.895Z,15.57
2023-02-07T03:41:51.820Z,14.95
2023-02-07T03:46:53.233Z,14.86
2023-02-07T03:51:54.636Z,15.29
2023-02-07T03:56:56.042Z,14.79
2023-02-07T04:01:57.439Z,14.82
2023-02-07T04:06:58.852Z,14.76
2023-02-07T04:12:00.222Z,14.81
2023-02-07T04:17:01.605Z,14.97
2023-02-07T04:22:02.977Z,14.73
2023-02-07T04:27:04.402Z,14.62
2023-02-07T04:32:05.817Z,15.34
2023-02-07T04:37:07.203Z,14.74
2023-02-07T04:42:08.598Z,14.69
2023-02-07T04:47:09.974Z,14.97
2023-02-07T04:52:11.343Z,14.58
2023-02-07T04:57:12.784Z,14.60
2023-02-07T05:02:14.198Z,14.50
2023-02-07T05:07:15.586Z,14.63
2023-02-07T05:12:16.963Z,14.90
2023-02-07T05:17:18.400Z,14.45
2023-02-07T05:22:19.844Z,14.60
2023-02-07T05:27:21.272Z,14.80
2023-02-07T05:32:40.926Z,15.00
2023-02-07T05:37:42.406Z,14.82
2023-02-07T05:42:43.781Z,14.58
2023-02-07T05:47:45.150Z,14.73
2023-02-07T05:52:46.535Z,14.70
2023-02-07T05:57:48.066Z,14.52
2023-02-07T06:02:49.520Z,15.00
2023-02-07T06:07:51.420Z,14.96
2023-02-07T06:12:52.926Z,14.67
2023-02-07T06:17:54.290Z,14.49
2023-02-07T06:22:55.711Z,14.92
2023-02-07T06:27:57.174Z,14.89
2023-02-07T06:32:58.561Z,14.56
2023-02-07T06:37:59.947Z,14.35
2023-02-07T06:43:01.365Z,14.87
2023-02-07T06:48:02.802Z,14.82
2023-02-07T06:53:04.362Z,14.67
2023-02-07T06:58:06.434Z,14.79
2023-02-07T07:03:15.256Z,15.03
2023-02-07T07:08:19.580Z,14.71
2023-02-07T07:13:20.990Z,14.44
2023-02-07T07:18:22.368Z,14.88
2023-02-07T07:23:23.735Z,14.99
2023-02-07T07:28:25.182Z,15.17
2023-02-07T07:33:26.589Z,14.77
2023-02-07T07:38:27.994Z,14.73
2023-02-07T07:43:29.393Z,15.21
2023-02-07T07:48:30.876Z,14.78
2023-02-07T07:53:32.315Z,14.69
2023-02-07T07:58:33.718Z,15.04
2023-02-07T08:03:35.131Z,14.80
2023-02-07T08:08:36.637Z,15.52
2023-02-07T08:13:38.162Z,15.51
2023-02-07T08:18:39.620Z,15.75
2023-02-07T08:23:41.056Z,15.65
2023-02-07T08:28:42.498Z,15.67
2023-02-07T08:33:44.771Z,15.35
2023-02-07T08:38:46.151Z,15.32
2023-02-07T08:43:47.533Z,15.25
2023-02-07T08:48:48.945Z,15.15
2023-02-07T08:53:50.404Z,14.89
2023-02-07T08:58:51.805Z,15.22
2023-02-07T09:03:56.579Z,14.97
2023-02-07T09:08:58.931Z,14.83
2023-02-07T09:14:00.306Z,14.70
2023-02-07T09:19:01.740Z,14.95
2023-02-07T09:24:03.891Z,15.22
2023-02-07T09:29:06.140Z,16.06
2023-02-07T09:34:07.545Z,16.47
2023-02-07T09:39:08.957Z,16.04
2023-02-07T09:44:17.898Z,16.21
2023-02-07T09:49:54.215Z,16.06
2023-02-07T09:54:56.274Z,15.81
2023-02-07T10:00:02.613Z,15.42
2023-02-07T10:05:20.983Z,15.56
2023-02-07T10:10:32.092Z,15.50
2023-02-07T10:15:39.533Z,15.92
2023-02-07T10:20:44.544Z,15.80
2023-02-07T10:26:13.309Z,15.84
2023-02-07T10:31:19.145Z,15.28
2023-02-07T10:36:20.684Z,15.44
2023-02-07T10:41:25.787Z,15.45
2023-02-07T10:46:27.262Z,15.12
2023-02-07T10:51:31.326Z,15.17
2023-02-07T10:56:33.567Z,15.29
2023-02-07T11:01:35.011Z,15.09
2023-02-07T11:06:36.398Z,15.80
2023-02-07T11:11:40.445Z,15.97
2023-02-07T11:16:43.783Z,16.42
2023-02-07T11:21:45.306Z,15.96
2023-02-07T11:27:07.093Z,16.02
2023-02-07T11:32:08.987Z,15.62
2023-02-07T11:37:11.523Z,15.69
2023-02-07T11:42:15.120Z,15.33
2023-02-07T11:47:19.560Z,15.05
2023-02-07T11:52:21.208Z,15.16
2023-02-07T11:57:22.943Z,15.72
2023-02-07T12:02:24.979Z,15.90
2023-02-07T12:07:38.468Z,15.98
2023-02-07T12:12:51.104Z,15.65
2023-02-07T12:18:10.585Z,15.43
2023-02-07T12:23:41.325Z,15.31
2023-02-07T12:28:48.873Z,15.15
2023-02-07T12:33:57.685Z,15.16
2023-02-07T12:39:28.365Z,15.28
2023-02-07T12:44:32.325Z,15.05
2023-02-07T12:49:39.735Z,15.11
2023-02-07T12:55:02.958Z,15.11
2023-02-07T13:00:25.785Z,15.28
2023-02-07T13:05:57.898Z,15.88
2023-02-07T13:11:18.447Z,15.68
2023-02-07T13:16:34.725Z,15.57
2023-02-07T13:21:38.895Z,15.72
2023-02-07T13:26:40.262Z,16.11
2023-02-07T13:31:55.270Z,16.45
2023-02-07T13:36:58.878Z,16.48
2023-02-07T13:42:14.006Z,16.62
2023-02-07T13:47:36.520Z,16.56
2023-02-07T13:52:43.528Z,16.57
2023-02-07T13:58:03.606Z,16.56
2023-02-07T14:03:06.277Z,16.62
2023-02-07T14:08:23.026Z,16.23
2023-02-07T14:13:27.120Z,15.99
2023-02-07T14:18:38.544Z,15.93
2023-02-07T14:24:04.772Z,15.99
2023-02-07T14:29:24.367Z,15.69
2023-02-07T14:34:32.126Z,15.69
2023-02-07T14:39:33.888Z,15.78
2023-02-07T14:44:36.676Z,15.63
2023-02-07T14:49:46.652Z,16.30
2023-02-07T14:54:51.448Z,15.99
2023-02-07T15:00:05.483Z,15.99
2023-02-07T15:05:12.887Z,16.29
2023-02-07T15:10:22.649Z,15.70
2023-02-07T15:15:56.770Z,15.55
2023-02-07T15:20:58.735Z,15.81
2023-02-07T15:26:04.462Z,16.35
2023-02-07T15:31:13.799Z,16.89
2023-02-07T15:36:45.771Z,16.56
2023-02-07T15:41:49.276Z,16.67
2023-02-07T15:47:17.897Z,16.38
2023-02-07T15:52:32.040Z,16.76
2023-02-07T15:57:35.355Z,16.89
2023-02-07T16:02:37.527Z,16.43
2023-02-07T16:07:42.331Z,16.51
2023-02-07T16:12:50.296Z,16.38
2023-02-07T16:17:52.039Z,16.41
2023-02-07T16:22:58.278Z,16.44
2023-02-07T16:27:59.699Z,16.51
2023-02-07T16:33:08.697Z,16.37
2023-02-07T16:38:10.098Z,16.46
2023-02-07T16:43:32.650Z,16.41
2023-02-07T16:48:34.075Z,16.57
2023-02-07T16:53:35.458Z,16.84
2023-02-07T16:58:36.886Z,16.95
2023-02-07T17:03:38.301Z,17.58
2023-02-07T17:08:39.682Z,17.46
2023-02-07T17:13:42.272Z,17.42
2023-02-07T17:18:43.675Z,17.51
2023-02-07T17:23:46.238Z,17.12
2023-02-07T17:28:48.362Z,17.21
2023-02-07T17:33:51.424Z,17.33
2023-02-07T17:38:52.799Z,17.22
2023-02-07T17:43:54.359Z,17.31
2023-02-07T17:48:55.826Z,17.52
2023-02-07T17:53:57.216Z,17.47
2023-02-07T17:59:00.193Z,17.46
2023-02-07T18:04:02.369Z,17.16
2023-02-07T18:09:03.733Z,17.09
2023-02-07T18:14:05.147Z,17.27
2023-02-07T18:19:06.514Z,17.45
2023-02-07T18:24:08.303Z,17.12
2023-02-07T18:29:09.702Z,17.29
2023-02-07T18:34:11.174Z,17.27
2023-02-07T18:39:13.565Z,17.42
2023-02-07T18:44:14.969Z,17.43
2023-02-07T18:49:16.352Z,17.02
2023-02-07T18:54:18.986Z,17.07
2023-02-07T18:59:21.035Z,17.26
2023-02-07T19:04:22.518Z,17.41
2023-02-07T19:09:23.887Z,17.34
2023-02-07T19:14:27.320Z,17.14
2023-02-07T19:19:29.649Z,17.25
2023-02-07T19:24:31.083Z,17.14
2023-02-07T19:29:33.163Z,17.20
2023-02-07T19:34:34.999Z,17.28
2023-02-07T19:39:37.013Z,17.24
2023-02-07T19:44:38.476Z,17.27
2023-02-07T19:49:39.844Z,17.01
2023-02-07T19:54:41.274Z,17.10
2023-02-07T19:59:45.343Z,17.01
2023-02-07T20:04:47.129Z,17.10
2023-02-07T20:09:48.555Z,17.00
2023-02-07T20:14:49.954Z,17.02
2023-02-07T20:19:52.372Z,17.19
2023-02-07T20:24:53.744Z,17.05
2023-02-07T20:29:55.122Z,17.15
2023-02-07T20:34:56.517Z,16.70
2023-02-07T20:39:57.891Z,17.19
2023-02-07T20:44:59.456Z,16.83
2023-02-07T20:50:00.859Z,16.86
2023-02-07T20:55:02.231Z,17.18
2023-02-07T21:00:04.737Z,16.90
2023-02-07T21:05:06.391Z,17.11
2023-02-07T21:10:07.998Z,16.83
2023-02-07T21:15:09.771Z,16.84
2023-02-07T21:20:11.164Z,16.91
2023-02-07T21:25:12.545Z,17.05
2023-02-07T21:30:13.926Z,16.78
2023-02-07T21:35:15.304Z,16.72
2023-02-07T21:40:17.516Z,17.15
2023-02-07T21:45:19.114Z,16.99
2023-02-07T21:50:20.817Z,16.74
2023-02-07T21:55:22.558Z,16.59
2023-02-07T22:00:24.012Z,16.50
2023-02-07T22:05:25.387Z,16.82
2023-02-07T22:10:26.776Z,16.55
2023-02-07T22:15:28.154Z,16.46
2023-02-07T22:20:29.541Z,16.43
2023-02-07T22:25:30.921Z,16.57
2023-02-07T22:30:37.645Z,16.35
2023-02-07T22:35:39.930Z,16.69
2023-02-07T22:40:41.639Z,16.56
2023-02-07T22:45:45.893Z,16.36
2023-02-07T22:50:47.360Z,16.53
2023-02-07T22:55:48.748Z,16.33
2023-02-07T23:00:50.257Z,16.53
2023-02-07T23:05:51.728Z,16.68
2023-02-07T23:10:53.107Z,16.25
2023-02-07T23:15:54.538Z,16.22
2023-02-07T23:20:55.964Z,16.47
2023-02-07T23:25:57.771Z,16.40
2023-02-07T23:30:59.280Z,16.31
2023-02-07T23:36:00.847Z,16.50
2023-02-07T23:41:02.219Z,16.47
2023-02-07T23:46:04.456Z,16.16
2023-02-07T23:51:06.075Z,16.42
2023-02-07T23:56:07.596Z,16.38
